Terminal Aerodrome Forecast
Issued by NWS

Home | Current Version | Previous Version | Text Only | Print | Product List | Glossary On
Versions: 1 2 3 4 5 6 7 8 9 10 11 12 13 14 15 16 17 18 19 20 21 22 23 24 25 26 27 28 29 30 31 32 33 34 35 36 37 38 39 40 41 42 43 44 45 46 47 48 49 50
000
FTAK31 PANC 051413 AAB
TAFACD
TAF AMD
PACD 051413Z 0514/0612 10021G30KT P6SM -RA VCFG OVC025
      TEMPO 0514/0518 OVC035
     FM051800 12025G35KT 5SM -RA BR SCT004 OVC015
     FM060000 13030G40KT P6SM -RA SCT008 BKN015
     FM060900 14020G35KT P6SM -RA OVC008=

USA.gov is the U.S. government's official web portal to all federal, state and local government web resources and services.